Shin'ai Maru — JD3307 — position and weather

sailwx.info

Track history (hours):
 
Tides and Currents Weather Stations Pressure Air Temp Water Temp Dewpoint Dewpoint Depression Visibility Wind Speed Wind Dir Waves Ship Positions

Shin'ai Maru

Last reported at 2017-Dec-11 07:19 UTC. Time now 2017-Dec-13 07:06 UTC.
Position N 34°44' E 134°49'.

Length 74 m; draft 3.6 m.

Type: Cargo ship. MMSI: 431003187.

Date/timePositionNaut miles runAvg speedWind from/ knotsBaromVisibWave heightAir tempDewpointWater temp
2017-Dec-11 07:19N 34°44' E 134°49'2 6.7
2017-Dec-11 07:00N 34°42' E 134°48'3 5.2
2017-Dec-11 06:30N 34°43' E 134°51'0 0.0
2017-Dec-11 06:00N 34°43' E 134°51'0 0.0
2017-Dec-11 05:30N 34°43' E 134°51'0 0.0
2017-Dec-11 05:00N 34°43' E 134°51'0 0.0
2017-Dec-11 04:30N 34°43' E 134°51'0 0.0
2017-Dec-11 04:00N 34°43' E 134°51'0 0.0
2017-Dec-11 03:30N 34°43' E 134°51'0 0.0
2017-Dec-11 03:00N 34°43' E 134°51'0 0.0
2017-Dec-11 02:30N 34°43' E 134°51'0 0.0
2017-Dec-11 02:00N 34°43' E 134°51'0 0.0
2017-Dec-11 01:18N 34°43' E 134°51'0 0.0
2017-Dec-11 00:54N 34°43' E 134°51'0 0.0
2017-Dec-11 00:30N 34°43' E 134°51'0 0.0
2017-Dec-10 23:54N 34°43' E 134°51'0 0.0
2017-Dec-10 23:30N 34°43' E 134°51'0 0.0
2017-Dec-10 23:00N 34°43' E 134°51'0 0.1
2017-Dec-10 20:04N 34°43' E 134°51'0 0.0
2017-Dec-10 18:40N 34°43' E 134°51'0 0.0
2017-Dec-10 18:22N 34°43' E 134°51'0 0.0
2017-Dec-10 15:22N 34°43' E 134°51'0 0.0
2017-Dec-10 12:28N 34°43' E 134°51'0 0.0
2017-Dec-10 11:52N 34°43' E 134°51'0 0.0
2017-Dec-10 09:04N 34°43' E 134°51'0 0.0
2017-Dec-10 08:58N 34°43' E 134°51'0 0.0
2017-Dec-10 08:28N 34°43' E 134°51'0 0.0
2017-Dec-10 07:52N 34°43' E 134°51'0 0.0
2017-Dec-10 06:58N 34°43' E 134°51'0 0.0
2017-Dec-10 06:22N 34°43' E 134°51'0 0.0
2017-Dec-10 04:52N 34°43' E 134°51'0 0.0
2017-Dec-10 04:28N 34°43' E 134°51'0 0.0
2017-Dec-09 18:59N 34°43' E 134°51'2 3.3
2017-Dec-09 18:30N 34°41' E 134°50'611.5
2017-Dec-09 18:00N 34°37' E 134°55'713.1
2017-Dec-09 17:30N 34°37' E 135°03'611.4
2017-Dec-09 17:00N 34°31' E 135°04'713.5
2017-Dec-09 16:30N 34°24' E 135°02'713.5
2017-Dec-09 16:00N 34°18' E 134°60'612.9
2017-Dec-09 15:30N 34°12' E 134°60'713.0
2017-Dec-09 15:00N 34°05' E 135°01'912.9
2017-Dec-09 14:19N 33°56' E 135°02'99 8.4
2017-Dec-09 02:31N 34°41' E 136°50'213.6
2017-Dec-09 02:24N 34°42' E 136°49'513.6
2017-Dec-09 02:00N 34°47' E 136°46'713.0
2017-Dec-09 01:30N 34°54' E 136°46'612.9
2017-Dec-09 01:00N 34°59' E 136°49'4 8.1
2017-Dec-09 00:30N 35°03' E 136°50'0 0.0
2017-Dec-09 00:00N 35°03' E 136°50'0 0.0
2017-Dec-08 23:29N 35°03' E 136°50'0 0.0
2017-Dec-08 22:59N 35°03' E 136°50'0 0.0
2017-Dec-08 22:29N 35°03' E 136°50'0 0.1
2017-Dec-08 22:00N 35°03' E 136°50'0 0.4
2017-Dec-08 21:28N 35°03' E 136°50'0 0.0
2017-Dec-08 20:58N 35°03' E 136°50'0 0.1
2017-Dec-08 20:28N 35°03' E 136°50'3 7.1
2017-Dec-08 20:01N 35°00' E 136°50'612.3
2017-Dec-08 19:30N 34°54' E 136°47'612.6
2017-Dec-08 19:01N 34°48' E 136°48'104 7.9
2017-Dec-08 05:53N 33°53' E 135°01'513.7
2017-Dec-08 05:30N 33°59' E 135°00'713.0
2017-Dec-08 04:59N 34°05' E 134°60'613.0
2017-Dec-08 04:30N 34°12' E 134°59'612.1
2017-Dec-08 04:01N 34°18' E 134°58'510.2
2017-Dec-08 03:31N 34°23' E 134°60'611.7
2017-Dec-08 03:00N 34°28' E 135°01'611.2
2017-Dec-08 02:30N 34°34' E 135°02'4 7.2
2017-Dec-08 02:01N 34°37' E 135°00'510.1
2017-Dec-08 01:31N 34°37' E 134°54'510.5
2017-Dec-08 01:00N 34°40' E 134°49'3 0.5
2017-Dec-07 18:42N 34°43' E 134°49'1 7.0
2017-Dec-07 18:31N 34°42' E 134°49'2 3.8
2017-Dec-07 17:57N 34°43' E 134°51'0 0.0
2017-Dec-07 17:27N 34°43' E 134°51'0 0.0
2017-Dec-07 16:57N 34°43' E 134°51'0 0.0
2017-Dec-07 16:27N 34°43' E 134°51'0 0.0
2017-Dec-07 15:57N 34°43' E 134°51'0 0.0
2017-Dec-07 15:27N 34°43' E 134°51'0 0.0
2017-Dec-07 14:57N 34°43' E 134°51'0 0.0
2017-Dec-07 14:27N 34°43' E 134°51'0 0.0
2017-Dec-07 13:57N 34°43' E 134°51'0 0.0
2017-Dec-07 13:09N 34°43' E 134°51'0 0.0
2017-Dec-07 12:57N 34°43' E 134°51'0 0.0
2017-Dec-07 12:27N 34°43' E 134°51'0 0.0
2017-Dec-07 11:51N 34°43' E 134°51'0 0.0
2017-Dec-07 11:27N 34°43' E 134°51'0 0.0
2017-Dec-07 10:57N 34°43' E 134°51'0 0.0
2017-Dec-07 10:27N 34°43' E 134°51'0 0.0
2017-Dec-07 09:57N 34°43' E 134°51'0 0.0
2017-Dec-07 09:27N 34°43' E 134°51'0 0.0
2017-Dec-07 08:57N 34°43' E 134°51'0 0.0
2017-Dec-07 08:27N 34°43' E 134°51'0 0.0
2017-Dec-07 07:57N 34°43' E 134°51'0 0.0
2017-Dec-07 07:21N 34°43' E 134°51'0 0.0
2017-Dec-07 07:01N 34°43' E 134°51'4 7.6
2017-Dec-07 06:29N 34°39' E 134°51'510.6
2017-Dec-07 06:00N 34°38' E 134°58'612.4
2017-Dec-07 05:30N 34°36' E 135°05'713.3
2017-Dec-07 05:00N 34°37' E 135°13'613.0
2017-Dec-07 04:30N 34°39' E 135°20'1 2.0
2017-Dec-07 04:01N 34°40' E 135°21'0 0.2
2017-Dec-07 03:30N 34°39' E 135°21'4 7.1
2017-Dec-07 03:00N 34°40' E 135°26'0 0.0
2017-Dec-07 02:26N 34°40' E 135°26'0 0.0
2017-Dec-07 01:59N 34°40' E 135°26'0 0.0
2017-Dec-07 01:29N 34°40' E 135°26'0 0.0
2017-Dec-07 00:59N 34°40' E 135°26'0 0.0
2017-Dec-07 00:29N 34°40' E 135°26'0 0.0
2017-Dec-06 23:59N 34°40' E 135°26'0 0.0
2017-Dec-06 23:29N 34°40' E 135°26'2 3.5
2017-Dec-06 23:01N 34°39' E 135°24'2 4.3
2017-Dec-06 22:30N 34°37' E 135°22'0 0.0
2017-Dec-06 22:00N 34°37' E 135°22'0 0.0
2017-Dec-06 21:30N 34°37' E 135°22'0 0.0
2017-Dec-06 20:59N 34°37' E 135°22'  
2017-Dec-03 22:59N 34°13' E 132°37'2 3.3
2017-Dec-03 22:29N 34°12' E 132°36'0 0.0
2017-Dec-03 21:59N 34°12' E 132°36'0 0.0
2017-Dec-03 21:23N 34°12' E 132°36'0 0.0
2017-Dec-03 20:56N 34°12' E 132°36'0 0.0
2017-Dec-03 20:29N 34°12' E 132°36'0 0.1
2017-Dec-03 19:59N 34°12' E 132°36'0 0.0
2017-Dec-03 19:29N 34°12' E 132°36'0 0.1
2017-Dec-03 18:50N 34°12' E 132°36'0 0.1
2017-Dec-03 18:26N 34°12' E 132°36'0 0.0
2017-Dec-03 17:56N 34°12' E 132°36'0 0.0
2017-Dec-03 17:26N 34°12' E 132°36'0 0.0
2017-Dec-03 16:59N 34°12' E 132°36'0 0.0
2017-Dec-03 16:23N 34°12' E 132°36'0 0.3
2017-Dec-03 16:00N 34°11' E 132°36'7912.5
2017-Dec-03 09:41N 34°26' E 134°10'215.0
2017-Dec-03 09:31N 34°25' E 134°12'714.4
2017-Dec-03 09:00N 34°22' E 134°21'713.3
2017-Dec-03 08:31N 34°20' E 134°28'713.2
2017-Dec-03 08:00N 34°17' E 134°35'713.4
2017-Dec-03 07:30N 34°12' E 134°41'713.4
2017-Dec-03 07:00N 34°07' E 134°46'613.0
2017-Dec-03 06:30N 34°02' E 134°52'713.2
2017-Dec-03 06:00N 33°57' E 134°57'88 9.7
2017-Dec-02 20:54N 34°03' E 136°43'5913.7
2017-Dec-02 16:35N 34°25' E 137°50'414.0
2017-Dec-02 16:16N 34°26' E 137°55'1113.4
2017-Dec-02 15:28N 34°29' E 138°07'612.7
2017-Dec-02 15:00N 34°31' E 138°14'812.3
2017-Dec-02 14:21N 34°32' E 138°24'412.2
2017-Dec-02 14:00N 34°32' E 138°29'712.1
2017-Dec-02 13:26N 34°34' E 138°37'611.9
2017-Dec-02 12:54N 34°35' E 138°45'511.6
2017-Dec-02 12:31N 34°35' E 138°50'510.6
2017-Dec-02 12:00N 34°36' E 138°57'611.8
2017-Dec-02 11:31N 34°40' E 139°02'712.8
2017-Dec-02 10:58N 34°46' E 139°07'713.0
2017-Dec-02 10:27N 34°51' E 139°12'613.0
2017-Dec-02 10:00N 34°55' E 139°16'611.9
2017-Dec-02 09:30N 34°58' E 139°23'612.0
2017-Dec-02 08:58N 35°02' E 139°29'611.9
2017-Dec-02 08:30N 35°05' E 139°35'713.1
2017-Dec-02 07:58N 35°09' E 139°42'613.3
2017-Dec-02 07:30N 35°14' E 139°46'611.8
2017-Dec-02 07:00N 35°19' E 139°43'611.9
2017-Dec-02 06:30N 35°25' E 139°44'713.3
2017-Dec-02 06:01N 35°29' E 139°50'713.2
2017-Dec-02 05:30N 35°33' E 139°57'612.0
2017-Dec-02 05:01N 35°34' E 140°04'2 4.1
2017-Dec-02 04:28N 35°33' E 140°07'0 0.0
2017-Dec-01 23:13N 35°33' E 140°07'0 1.4
2017-Dec-01 23:00N 35°33' E 140°06'2 4.5
2017-Dec-01 22:30N 35°34' E 140°04'0 0.1
2017-Dec-01 21:58N 35°34' E 140°04'0 0.0
2017-Dec-01 21:28N 35°34' E 140°04'0 0.1
2017-Dec-01 20:52N 35°34' E 140°04'0 0.1
2017-Dec-01 20:28N 35°34' E 140°04'0 0.0
2017-Dec-01 19:58N 35°34' E 140°04'0 0.0
2017-Dec-01 19:28N 35°34' E 140°04'0 0.0
2017-Dec-01 18:58N 35°34' E 140°04'0 0.0
2017-Dec-01 18:28N 35°34' E 140°04'0 0.0
2017-Dec-01 17:55N 35°34' E 140°04'0 0.0
2017-Dec-01 17:28N 35°34' E 140°04'0 0.1
2017-Dec-01 16:58N 35°34' E 140°04'0 0.0
2017-Dec-01 16:28N 35°34' E 140°04'0 0.0
2017-Dec-01 15:55N 35°34' E 140°04'0 0.0
2017-Dec-01 15:28N 35°34' E 140°04'0 0.1
2017-Dec-01 14:55N 35°34' E 140°04'0 0.1
2017-Dec-01 14:25N 35°34' E 140°04'0 0.0
2017-Dec-01 13:55N 35°34' E 140°04'0 0.0
2017-Dec-01 13:25N 35°34' E 140°04'0 0.0
2017-Dec-01 12:58N 35°34' E 140°04'0 0.0
2017-Dec-01 12:25N 35°34' E 140°04'0 0.0
2017-Dec-01 11:52N 35°34' E 140°04'0 0.0
2017-Dec-01 11:25N 35°34' E 140°04'0 0.1
2017-Dec-01 10:58N 35°34' E 140°04'0 0.1
2017-Dec-01 10:25N 35°34' E 140°04'0 0.0
2017-Dec-01 09:58N 35°34' E 140°04'0 0.1
2017-Dec-01 09:28N 35°34' E 140°04'0 0.0
2017-Dec-01 08:58N 35°34' E 140°04'0 0.0
2017-Dec-01 08:28N 35°34' E 140°04'0 0.0
2017-Dec-01 07:55N 35°34' E 140°04'0 0.0
2017-Dec-01 07:28N 35°34' E 140°04'  
Track history (hours):
 
Tides and Currents Weather Stations Pressure Air Temp Water Temp Dewpoint Dewpoint Depression Visibility Wind Speed Wind Dir Waves Ship Positions

Shin'ai Maru

Last reported at 2017-Dec-11 07:19 UTC. Time now 2017-Dec-13 07:06 UTC.
Position N 34°44' E 134°49'.

Length 74 m; draft 3.6 m.

Type: Cargo ship. MMSI: 431003187.

Date/timePositionNaut miles runAvg speedWind from/ knotsBaromVisibWave heightAir tempDewpointWater temp
2017-Dec-11 07:19N 34°44' E 134°49'2 6.7
2017-Dec-11 07:00N 34°42' E 134°48'3 5.2
2017-Dec-11 06:30N 34°43' E 134°51'0 0.0
2017-Dec-11 06:00N 34°43' E 134°51'0 0.0
2017-Dec-11 05:30N 34°43' E 134°51'0 0.0
2017-Dec-11 05:00N 34°43' E 134°51'0 0.0
2017-Dec-11 04:30N 34°43' E 134°51'0 0.0
2017-Dec-11 04:00N 34°43' E 134°51'0 0.0
2017-Dec-11 03:30N 34°43' E 134°51'0 0.0
2017-Dec-11 03:00N 34°43' E 134°51'0 0.0
2017-Dec-11 02:30N 34°43' E 134°51'0 0.0
2017-Dec-11 02:00N 34°43' E 134°51'0 0.0
2017-Dec-11 01:18N 34°43' E 134°51'0 0.0
2017-Dec-11 00:54N 34°43' E 134°51'0 0.0
2017-Dec-11 00:30N 34°43' E 134°51'0 0.0
2017-Dec-10 23:54N 34°43' E 134°51'0 0.0
2017-Dec-10 23:30N 34°43' E 134°51'0 0.0
2017-Dec-10 23:00N 34°43' E 134°51'0 0.1
2017-Dec-10 20:04N 34°43' E 134°51'0 0.0
2017-Dec-10 18:40N 34°43' E 134°51'0 0.0
2017-Dec-10 18:22N 34°43' E 134°51'0 0.0
2017-Dec-10 15:22N 34°43' E 134°51'0 0.0
2017-Dec-10 12:28N 34°43' E 134°51'0 0.0
2017-Dec-10 11:52N 34°43' E 134°51'0 0.0
2017-Dec-10 09:04N 34°43' E 134°51'0 0.0
2017-Dec-10 08:58N 34°43' E 134°51'0 0.0
2017-Dec-10 08:28N 34°43' E 134°51'0 0.0
2017-Dec-10 07:52N 34°43' E 134°51'0 0.0
2017-Dec-10 06:58N 34°43' E 134°51'0 0.0
2017-Dec-10 06:22N 34°43' E 134°51'0 0.0
2017-Dec-10 04:52N 34°43' E 134°51'0 0.0
2017-Dec-10 04:28N 34°43' E 134°51'0 0.0
2017-Dec-09 18:59N 34°43' E 134°51'2 3.3
2017-Dec-09 18:30N 34°41' E 134°50'611.5
2017-Dec-09 18:00N 34°37' E 134°55'713.1
2017-Dec-09 17:30N 34°37' E 135°03'611.4
2017-Dec-09 17:00N 34°31' E 135°04'713.5
2017-Dec-09 16:30N 34°24' E 135°02'713.5
2017-Dec-09 16:00N 34°18' E 134°60'612.9
2017-Dec-09 15:30N 34°12' E 134°60'713.0
2017-Dec-09 15:00N 34°05' E 135°01'912.9
2017-Dec-09 14:19N 33°56' E 135°02'99 8.4
2017-Dec-09 02:31N 34°41' E 136°50'213.6
2017-Dec-09 02:24N 34°42' E 136°49'513.6
2017-Dec-09 02:00N 34°47' E 136°46'713.0
2017-Dec-09 01:30N 34°54' E 136°46'612.9
2017-Dec-09 01:00N 34°59' E 136°49'4 8.1
2017-Dec-09 00:30N 35°03' E 136°50'0 0.0
2017-Dec-09 00:00N 35°03' E 136°50'0 0.0
2017-Dec-08 23:29N 35°03' E 136°50'0 0.0
2017-Dec-08 22:59N 35°03' E 136°50'0 0.0
2017-Dec-08 22:29N 35°03' E 136°50'0 0.1
2017-Dec-08 22:00N 35°03' E 136°50'0 0.4
2017-Dec-08 21:28N 35°03' E 136°50'0 0.0
2017-Dec-08 20:58N 35°03' E 136°50'0 0.1
2017-Dec-08 20:28N 35°03' E 136°50'3 7.1
2017-Dec-08 20:01N 35°00' E 136°50'612.3
2017-Dec-08 19:30N 34°54' E 136°47'612.6
2017-Dec-08 19:01N 34°48' E 136°48'104 7.9
2017-Dec-08 05:53N 33°53' E 135°01'513.7
2017-Dec-08 05:30N 33°59' E 135°00'713.0
2017-Dec-08 04:59N 34°05' E 134°60'613.0
2017-Dec-08 04:30N 34°12' E 134°59'612.1
2017-Dec-08 04:01N 34°18' E 134°58'510.2
2017-Dec-08 03:31N 34°23' E 134°60'611.7
2017-Dec-08 03:00N 34°28' E 135°01'611.2
2017-Dec-08 02:30N 34°34' E 135°02'4 7.2
2017-Dec-08 02:01N 34°37' E 135°00'510.1
2017-Dec-08 01:31N 34°37' E 134°54'510.5
2017-Dec-08 01:00N 34°40' E 134°49'3 0.5
2017-Dec-07 18:42N 34°43' E 134°49'1 7.0
2017-Dec-07 18:31N 34°42' E 134°49'2 3.8
2017-Dec-07 17:57N 34°43' E 134°51'0 0.0
2017-Dec-07 17:27N 34°43' E 134°51'0 0.0
2017-Dec-07 16:57N 34°43' E 134°51'0 0.0
2017-Dec-07 16:27N 34°43' E 134°51'0 0.0
2017-Dec-07 15:57N 34°43' E 134°51'0 0.0
2017-Dec-07 15:27N 34°43' E 134°51'0 0.0
2017-Dec-07 14:57N 34°43' E 134°51'0 0.0
2017-Dec-07 14:27N 34°43' E 134°51'0 0.0
2017-Dec-07 13:57N 34°43' E 134°51'0 0.0
2017-Dec-07 13:09N 34°43' E 134°51'0 0.0
2017-Dec-07 12:57N 34°43' E 134°51'0 0.0
2017-Dec-07 12:27N 34°43' E 134°51'0 0.0
2017-Dec-07 11:51N 34°43' E 134°51'0 0.0
2017-Dec-07 11:27N 34°43' E 134°51'0 0.0
2017-Dec-07 10:57N 34°43' E 134°51'0 0.0
2017-Dec-07 10:27N 34°43' E 134°51'0 0.0
2017-Dec-07 09:57N 34°43' E 134°51'0 0.0
2017-Dec-07 09:27N 34°43' E 134°51'0 0.0
2017-Dec-07 08:57N 34°43' E 134°51'0 0.0
2017-Dec-07 08:27N 34°43' E 134°51'0 0.0
2017-Dec-07 07:57N 34°43' E 134°51'0 0.0
2017-Dec-07 07:21N 34°43' E 134°51'0 0.0
2017-Dec-07 07:01N 34°43' E 134°51'4 7.6
2017-Dec-07 06:29N 34°39' E 134°51'510.6
2017-Dec-07 06:00N 34°38' E 134°58'612.4
2017-Dec-07 05:30N 34°36' E 135°05'713.3
2017-Dec-07 05:00N 34°37' E 135°13'613.0
2017-Dec-07 04:30N 34°39' E 135°20'1 2.0
2017-Dec-07 04:01N 34°40' E 135°21'0 0.2
2017-Dec-07 03:30N 34°39' E 135°21'4 7.1
2017-Dec-07 03:00N 34°40' E 135°26'0 0.0
2017-Dec-07 02:26N 34°40' E 135°26'0 0.0
2017-Dec-07 01:59N 34°40' E 135°26'0 0.0
2017-Dec-07 01:29N 34°40' E 135°26'0 0.0
2017-Dec-07 00:59N 34°40' E 135°26'0 0.0
2017-Dec-07 00:29N 34°40' E 135°26'0 0.0
2017-Dec-06 23:59N 34°40' E 135°26'0 0.0
2017-Dec-06 23:29N 34°40' E 135°26'2 3.5
2017-Dec-06 23:01N 34°39' E 135°24'2 4.3
2017-Dec-06 22:30N 34°37' E 135°22'0 0.0
2017-Dec-06 22:00N 34°37' E 135°22'0 0.0
2017-Dec-06 21:30N 34°37' E 135°22'0 0.0
2017-Dec-06 20:59N 34°37' E 135°22'  
2017-Dec-03 22:59N 34°13' E 132°37'2 3.3
2017-Dec-03 22:29N 34°12' E 132°36'0 0.0
2017-Dec-03 21:59N 34°12' E 132°36'0 0.0
2017-Dec-03 21:23N 34°12' E 132°36'0 0.0
2017-Dec-03 20:56N 34°12' E 132°36'0 0.0
2017-Dec-03 20:29N 34°12' E 132°36'0 0.1
2017-Dec-03 19:59N 34°12' E 132°36'0 0.0
2017-Dec-03 19:29N 34°12' E 132°36'0 0.1
2017-Dec-03 18:50N 34°12' E 132°36'0 0.1
2017-Dec-03 18:26N 34°12' E 132°36'0 0.0
2017-Dec-03 17:56N 34°12' E 132°36'0 0.0
2017-Dec-03 17:26N 34°12' E 132°36'0 0.0
2017-Dec-03 16:59N 34°12' E 132°36'0 0.0
2017-Dec-03 16:23N 34°12' E 132°36'0 0.3
2017-Dec-03 16:00N 34°11' E 132°36'7912.5
2017-Dec-03 09:41N 34°26' E 134°10'215.0
2017-Dec-03 09:31N 34°25' E 134°12'714.4
2017-Dec-03 09:00N 34°22' E 134°21'713.3
2017-Dec-03 08:31N 34°20' E 134°28'713.2
2017-Dec-03 08:00N 34°17' E 134°35'713.4
2017-Dec-03 07:30N 34°12' E 134°41'713.4
2017-Dec-03 07:00N 34°07' E 134°46'613.0
2017-Dec-03 06:30N 34°02' E 134°52'713.2
2017-Dec-03 06:00N 33°57' E 134°57'88 9.7
2017-Dec-02 20:54N 34°03' E 136°43'5913.7
2017-Dec-02 16:35N 34°25' E 137°50'414.0
2017-Dec-02 16:16N 34°26' E 137°55'1113.4
2017-Dec-02 15:28N 34°29' E 138°07'612.7
2017-Dec-02 15:00N 34°31' E 138°14'812.3
2017-Dec-02 14:21N 34°32' E 138°24'412.2
2017-Dec-02 14:00N 34°32' E 138°29'712.1
2017-Dec-02 13:26N 34°34' E 138°37'611.9
2017-Dec-02 12:54N 34°35' E 138°45'511.6
2017-Dec-02 12:31N 34°35' E 138°50'510.6
2017-Dec-02 12:00N 34°36' E 138°57'611.8
2017-Dec-02 11:31N 34°40' E 139°02'712.8
2017-Dec-02 10:58N 34°46' E 139°07'713.0
2017-Dec-02 10:27N 34°51' E 139°12'613.0
2017-Dec-02 10:00N 34°55' E 139°16'611.9
2017-Dec-02 09:30N 34°58' E 139°23'612.0
2017-Dec-02 08:58N 35°02' E 139°29'611.9
2017-Dec-02 08:30N 35°05' E 139°35'713.1
2017-Dec-02 07:58N 35°09' E 139°42'613.3
2017-Dec-02 07:30N 35°14' E 139°46'611.8
2017-Dec-02 07:00N 35°19' E 139°43'611.9
2017-Dec-02 06:30N 35°25' E 139°44'713.3
2017-Dec-02 06:01N 35°29' E 139°50'713.2
2017-Dec-02 05:30N 35°33' E 139°57'612.0
2017-Dec-02 05:01N 35°34' E 140°04'2 4.1
2017-Dec-02 04:28N 35°33' E 140°07'0 0.0
2017-Dec-01 23:13N 35°33' E 140°07'0 1.4
2017-Dec-01 23:00N 35°33' E 140°06'2 4.5
2017-Dec-01 22:30N 35°34' E 140°04'0 0.1
2017-Dec-01 21:58N 35°34' E 140°04'0 0.0
2017-Dec-01 21:28N 35°34' E 140°04'0 0.1
2017-Dec-01 20:52N 35°34' E 140°04'0 0.1
2017-Dec-01 20:28N 35°34' E 140°04'0 0.0
2017-Dec-01 19:58N 35°34' E 140°04'0 0.0
2017-Dec-01 19:28N 35°34' E 140°04'0 0.0
2017-Dec-01 18:58N 35°34' E 140°04'0 0.0
2017-Dec-01 18:28N 35°34' E 140°04'0 0.0
2017-Dec-01 17:55N 35°34' E 140°04'0 0.0
2017-Dec-01 17:28N 35°34' E 140°04'0 0.1
2017-Dec-01 16:58N 35°34' E 140°04'0 0.0
2017-Dec-01 16:28N 35°34' E 140°04'0 0.0
2017-Dec-01 15:55N 35°34' E 140°04'0 0.0
2017-Dec-01 15:28N 35°34' E 140°04'0 0.1
2017-Dec-01 14:55N 35°34' E 140°04'0 0.1
2017-Dec-01 14:25N 35°34' E 140°04'0 0.0
2017-Dec-01 13:55N 35°34' E 140°04'0 0.0
2017-Dec-01 13:25N 35°34' E 140°04'0 0.0
2017-Dec-01 12:58N 35°34' E 140°04'0 0.0
2017-Dec-01 12:25N 35°34' E 140°04'0 0.0
2017-Dec-01 11:52N 35°34' E 140°04'0 0.0
2017-Dec-01 11:25N 35°34' E 140°04'0 0.1
2017-Dec-01 10:58N 35°34' E 140°04'0 0.1
2017-Dec-01 10:25N 35°34' E 140°04'0 0.0
2017-Dec-01 09:58N 35°34' E 140°04'0 0.1
2017-Dec-01 09:28N 35°34' E 140°04'0 0.0
2017-Dec-01 08:58N 35°34' E 140°04'0 0.0
2017-Dec-01 08:28N 35°34' E 140°04'0 0.0
2017-Dec-01 07:55N 35°34' E 140°04'0 0.0
2017-Dec-01 07:28N 35°34' E 140°04'  

Dump ship's entire track history